Airfield :
LOGIN :

Register | Disclaimer

   EN    FR    IT 

 










Legend :    VFR   Marginal VFR   IFR   Intensive IFR   Very Intensive IFR
Visi :
Ceiling :
>= 8 km
>= 3000ft
5 to 8 km
1000 to 3000 ft
1500m to 5 km
500 to 1000 ft
800 to 1500m
200 to 500 ft
< 800m
< 200 ft
Symbols :   Thunderstorms  Fog  Heavy snow  Heavy precipitations  Wind > 20 kt
SIGMETs :     Misc.  Thunderstorms  Icing  Turbulence  Mountain Waves  Volcanic Ashes






- Airport Elevation : 85 ft
- IATA code : SFA


DTTX - Thyna/El Maou - Sfax

CURRENT METAR :
  • 230100Z 34008KT CAVOK 27/15 Q1015

EXPIRED METARs :
  • 230000Z 34006KT CAVOK 28/16 Q1015
  • 222300Z 32005KT CAVOK 28/19 Q1015
  • 222200Z 01005KT 340V040 CAVOK 28/20 Q1015
  • 222100Z 03010KT 360V060 CAVOK 28/21 Q1015

TAF TAF DTTX
Valid from the 23 at 00:00 until the 24 at 00:00 UTC


222300Z 2300/2324 32005KT CAVOK
BECMG 2313/2315 10013KT
BECMG 2319/2321 03010KT



MET'MAP, your aeronautical weather chart ! - Copyright ORBIFLY December 2007 - Disclaimer

ORBIFLY MET'MAP TEAM :

Programming & Development : Alexandra Zaïnal
Original concept : Baudouin d'Aumeries
Technical & hardware support : Manuel Goepfert
Assistance : Marc-Olivier Méhu




SOURCES & CREDITS :

   NOAA